createdAt,value
2023-05-06T00:02:06.369Z,67.90
2023-05-06T00:04:33.668Z,68.00
2023-05-06T00:07:00.405Z,68.00
2023-05-06T00:09:27.251Z,68.00
2023-05-06T00:11:53.925Z,68.10
2023-05-06T00:14:23.787Z,68.10
2023-05-06T00:16:50.614Z,68.20
2023-05-06T00:19:17.370Z,68.20
2023-05-06T00:21:44.109Z,68.20
2023-05-06T00:24:10.805Z,68.40
2023-05-06T00:26:37.523Z,68.40
2023-05-06T00:29:04.318Z,68.40
2023-05-06T00:31:31.093Z,68.50
2023-05-06T00:33:57.866Z,68.70
2023-05-06T00:36:24.585Z,68.70
2023-05-06T00:38:51.279Z,68.80
2023-05-06T00:41:18.073Z,68.90
2023-05-06T00:43:45.102Z,68.90
2023-05-06T00:46:12.484Z,68.90
2023-05-06T00:48:39.774Z,69.00
2023-05-06T00:51:06.487Z,69.00
2023-05-06T00:53:33.237Z,69.00
2023-05-06T00:56:00.090Z,69.10
2023-05-06T00:58:27.095Z,69.20
2023-05-06T01:00:53.837Z,69.20
2023-05-06T01:03:20.711Z,69.20
2023-05-06T01:05:53.128Z,69.20
2023-05-06T01:08:35.983Z,69.20
2023-05-06T01:11:10.420Z,69.30
2023-05-06T01:13:50.507Z,69.20
2023-05-06T01:16:19.484Z,69.30
2023-05-06T01:18:47.386Z,69.20
2023-05-06T01:21:14.115Z,69.20
2023-05-06T01:23:54.780Z,69.20
2023-05-06T01:26:22.276Z,69.40
2023-05-06T01:28:49.093Z,69.20
2023-05-06T01:31:26.909Z,69.20
2023-05-06T01:33:54.222Z,69.40
2023-05-06T01:36:29.260Z,69.50
2023-05-06T01:39:18.387Z,69.50
2023-05-06T01:41:50.635Z,69.60
2023-05-06T01:44:17.731Z,69.50
2023-05-06T01:46:44.886Z,69.70
2023-05-06T01:49:11.667Z,69.60
2023-05-06T01:51:38.926Z,69.70
2023-05-06T01:54:07.424Z,69.80
2023-05-06T01:56:34.440Z,69.80
2023-05-06T01:59:01.246Z,69.90
2023-05-06T02:01:28.429Z,70.00
2023-05-06T02:03:55.820Z,70.20
2023-05-06T02:06:23.285Z,70.10
2023-05-06T02:08:50.007Z,70.20
2023-05-06T02:11:16.752Z,70.20
2023-05-06T02:13:43.976Z,70.20
2023-05-06T02:16:10.791Z,70.40
2023-05-06T02:18:38.029Z,70.50
2023-05-06T02:21:05.128Z,70.50
2023-05-06T02:23:32.558Z,70.60
2023-05-06T02:26:00.069Z,70.80
2023-05-06T02:28:37.386Z,70.90
2023-05-06T02:31:04.620Z,70.90
2023-05-06T02:33:32.557Z,71.00
2023-05-06T02:36:00.194Z,70.90
2023-05-06T02:38:27.113Z,71.00
2023-05-06T02:40:53.929Z,71.00
2023-05-06T02:43:20.821Z,71.10
2023-05-06T02:45:47.498Z,71.30
2023-05-06T02:48:14.201Z,71.30
2023-05-06T02:50:40.938Z,71.40
2023-05-06T02:53:15.093Z,71.60
2023-05-06T02:55:41.901Z,71.70
2023-05-06T02:58:08.707Z,71.80
2023-05-06T03:00:35.456Z,71.90
2023-05-06T03:03:02.406Z,71.90
2023-05-06T03:05:29.236Z,71.90
2023-05-06T03:07:56.318Z,72.00
2023-05-06T03:10:23.024Z,72.10
2023-05-06T03:12:52.261Z,72.30
2023-05-06T03:15:19.274Z,72.40
2023-05-06T03:17:47.621Z,72.40
2023-05-06T03:20:14.387Z,72.50
2023-05-06T03:22:41.124Z,72.60
2023-05-06T03:25:08.506Z,72.60
2023-05-06T03:27:35.616Z,72.70
2023-05-06T03:30:02.832Z,72.70
2023-05-06T03:32:29.848Z,72.80
2023-05-06T03:34:56.686Z,72.80
2023-05-06T03:37:23.429Z,72.90
2023-05-06T03:39:50.172Z,72.90
2023-05-06T03:42:16.783Z,73.10
2023-05-06T03:44:43.674Z,73.00
2023-05-06T03:47:10.529Z,73.00
2023-05-06T03:49:37.398Z,73.80
2023-05-06T03:52:04.586Z,73.10
2023-05-06T03:54:31.409Z,73.10
2023-05-06T03:56:58.185Z,73.00
2023-05-06T03:59:25.301Z,73.10
2023-05-06T04:01:52.043Z,73.10
2023-05-06T04:04:18.773Z,73.20
2023-05-06T04:06:45.576Z,73.20
2023-05-06T04:09:12.393Z,73.20
2023-05-06T04:11:39.103Z,73.10
2023-05-06T04:14:05.858Z,73.10
2023-05-06T04:16:32.595Z,73.10
2023-05-06T04:18:59.390Z,73.30
2023-05-06T04:21:26.382Z,73.20
2023-05-06T04:23:53.228Z,73.30
2023-05-06T04:26:19.955Z,73.40
2023-05-06T04:28:46.971Z,73.40
2023-05-06T04:31:14.282Z,73.50
2023-05-06T04:33:41.460Z,73.50
2023-05-06T04:36:08.984Z,73.60
2023-05-06T04:38:36.108Z,73.70
2023-05-06T04:41:03.119Z,73.70
2023-05-06T04:43:29.838Z,73.70
2023-05-06T04:45:56.651Z,73.80
2023-05-06T04:48:23.591Z,73.80
2023-05-06T04:50:50.915Z,73.70
2023-05-06T04:53:17.778Z,73.80
2023-05-06T04:55:44.559Z,73.90
2023-05-06T04:58:11.387Z,74.10
2023-05-06T05:00:38.188Z,74.10
2023-05-06T05:03:05.551Z,74.10
2023-05-06T05:05:32.732Z,74.10
2023-05-06T05:07:59.461Z,74.10
2023-05-06T05:10:26.264Z,74.10
2023-05-06T05:12:53.177Z,74.20
2023-05-06T05:15:20.254Z,74.20
2023-05-06T05:17:47.314Z,74.20
2023-05-06T05:20:14.184Z,74.20
2023-05-06T05:22:40.988Z,74.30
2023-05-06T05:25:08.563Z,74.30
2023-05-06T05:27:35.625Z,74.30
2023-05-06T05:30:02.365Z,74.30
2023-05-06T05:32:29.143Z,74.30
2023-05-06T05:34:55.883Z,74.30
2023-05-06T05:37:22.571Z,74.30
2023-05-06T05:39:49.325Z,74.20
2023-05-06T05:42:16.603Z,74.00
2023-05-06T05:44:43.302Z,74.00
2023-05-06T05:47:10.374Z,74.00
2023-05-06T05:49:37.051Z,73.90
2023-05-06T05:52:04.126Z,73.80
2023-05-06T05:54:30.917Z,73.90
2023-05-06T05:56:57.837Z,73.80
2023-05-06T05:59:24.892Z,73.90
2023-05-06T06:01:51.810Z,73.90
2023-05-06T06:04:19.150Z,73.90
2023-05-06T06:06:46.116Z,73.90
2023-05-06T06:09:13.396Z,73.80
2023-05-06T06:11:40.167Z,73.80
2023-05-06T06:14:07.142Z,73.80
2023-05-06T06:16:34.709Z,73.80
2023-05-06T06:19:01.725Z,73.80
2023-05-06T06:21:28.429Z,73.80
2023-05-06T06:23:55.234Z,73.80
2023-05-06T06:26:22.793Z,73.60
2023-05-06T06:28:49.559Z,73.60
2023-05-06T06:31:16.372Z,73.50
2023-05-06T06:33:43.106Z,73.40
2023-05-06T06:36:10.052Z,73.40
2023-05-06T06:38:36.816Z,73.40
2023-05-06T06:41:04.644Z,73.40
2023-05-06T06:43:31.362Z,73.50
2023-05-06T06:45:58.179Z,73.40
2023-05-06T06:48:24.915Z,73.50
2023-05-06T06:50:51.629Z,73.50
2023-05-06T06:53:18.347Z,73.60
2023-05-06T06:55:45.721Z,73.50
2023-05-06T06:58:12.425Z,73.60
2023-05-06T07:00:39.118Z,73.60
2023-05-06T07:03:06.009Z,73.60
2023-05-06T07:05:32.788Z,73.40
2023-05-06T07:08:01.736Z,73.30
2023-05-06T07:10:28.606Z,73.30
2023-05-06T07:12:55.411Z,73.20
2023-05-06T07:15:22.213Z,73.10
2023-05-06T07:17:49.027Z,72.90
2023-05-06T07:20:15.801Z,72.80
2023-05-06T07:22:42.612Z,72.80
2023-05-06T07:25:09.802Z,72.70
2023-05-06T07:27:36.649Z,72.50
2023-05-06T07:30:03.673Z,72.50
2023-05-06T07:32:30.412Z,72.60
2023-05-06T07:34:57.120Z,72.50
2023-05-06T07:37:23.866Z,72.50
2023-05-06T07:39:50.546Z,72.30
2023-05-06T07:42:17.231Z,72.20
2023-05-06T07:44:43.958Z,72.20
2023-05-06T07:47:10.766Z,72.00
2023-05-06T07:49:37.547Z,71.90
2023-05-06T07:52:04.567Z,71.70
2023-05-06T07:54:31.264Z,71.70
2023-05-06T07:56:58.030Z,71.70
2023-05-06T07:59:24.721Z,71.50
2023-05-06T08:01:51.440Z,71.50
2023-05-06T08:04:18.195Z,71.60
2023-05-06T08:06:45.019Z,71.60
2023-05-06T08:09:14.754Z,71.60
2023-05-06T08:11:46.669Z,71.50
2023-05-06T08:14:13.396Z,71.60
2023-05-06T08:16:40.408Z,71.50
2023-05-06T08:19:07.160Z,71.50
2023-05-06T08:21:33.872Z,71.40
2023-05-06T08:24:00.982Z,71.50
2023-05-06T08:26:28.174Z,71.40
2023-05-06T08:28:55.068Z,71.50
2023-05-06T08:31:21.778Z,71.50
2023-05-06T08:33:48.478Z,71.50
2023-05-06T08:36:15.207Z,71.70
2023-05-06T08:38:42.051Z,71.70
2023-05-06T08:41:11.600Z,72.00
2023-05-06T08:43:41.536Z,72.00
2023-05-06T08:46:08.500Z,72.10
2023-05-06T08:48:35.263Z,72.00
2023-05-06T08:51:02.536Z,72.00
2023-05-06T08:53:30.042Z,71.90
2023-05-06T08:56:07.531Z,71.90
2023-05-06T08:58:34.776Z,72.10
2023-05-06T09:01:03.298Z,72.20
2023-05-06T09:03:30.201Z,72.20
2023-05-06T09:05:57.964Z,72.50
2023-05-06T09:08:24.702Z,72.50
2023-05-06T09:10:51.512Z,72.70
2023-05-06T09:13:18.975Z,72.60
2023-05-06T09:15:49.078Z,72.40
2023-05-06T09:18:16.968Z,72.20
2023-05-06T09:20:45.522Z,72.10
2023-05-06T09:23:13.464Z,71.80
2023-05-06T09:25:40.548Z,71.90
2023-05-06T09:28:11.182Z,72.00
2023-05-06T09:30:44.906Z,72.00
2023-05-06T09:33:11.939Z,72.20
2023-05-06T09:35:40.021Z,72.30
2023-05-06T09:38:07.429Z,72.20
2023-05-06T09:40:35.676Z,72.30
2023-05-06T09:43:02.861Z,73.30
2023-05-06T09:45:29.610Z,72.70
2023-05-06T09:47:56.440Z,72.70
2023-05-06T09:50:23.556Z,72.80
2023-05-06T09:52:50.818Z,73.00
2023-05-06T09:55:22.325Z,73.00
2023-05-06T09:57:49.872Z,73.20
2023-05-06T10:00:16.998Z,73.00
2023-05-06T10:02:44.783Z,73.20
2023-05-06T10:05:12.257Z,73.00
2023-05-06T10:07:39.783Z,73.00
2023-05-06T10:10:11.036Z,73.00
2023-05-06T10:12:37.807Z,73.10
2023-05-06T10:15:05.440Z,73.00
2023-05-06T10:17:32.525Z,73.00
2023-05-06T10:19:59.839Z,73.10
2023-05-06T10:22:59.953Z,73.20
2023-05-06T10:25:37.322Z,73.10
2023-05-06T10:28:16.625Z,73.20
2023-05-06T10:30:58.131Z,73.00
2023-05-06T10:33:24.872Z,73.00
2023-05-06T10:36:20.325Z,73.00
2023-05-06T10:38:50.803Z,73.00
2023-05-06T10:41:17.568Z,72.80
2023-05-06T10:43:44.411Z,72.80
2023-05-06T10:46:18.548Z,72.80
2023-05-06T10:49:04.172Z,72.80
2023-05-06T10:51:31.693Z,72.90
2023-05-06T10:54:08.534Z,73.00
2023-05-06T10:56:58.794Z,73.20
2023-05-06T10:59:25.899Z,73.00
2023-05-06T11:02:16.607Z,73.00
2023-05-06T11:04:43.749Z,72.80
2023-05-06T11:07:15.202Z,72.80
2023-05-06T11:09:57.545Z,72.70
2023-05-06T11:12:52.504Z,72.70
2023-05-06T11:15:20.167Z,72.70
2023-05-06T11:17:46.938Z,72.60
2023-05-06T11:20:26.811Z,72.30
2023-05-06T11:22:53.892Z,72.30
2023-05-06T11:25:39.840Z,72.10
2023-05-06T11:28:13.590Z,72.10
2023-05-06T11:30:44.753Z,72.30
2023-05-06T11:33:18.102Z,72.30
2023-05-06T11:35:45.012Z,72.70
2023-05-06T11:38:12.237Z,72.80
2023-05-06T11:40:40.927Z,72.80
2023-05-06T11:43:14.292Z,72.80
2023-05-06T11:45:41.741Z,72.80
2023-05-06T11:48:14.188Z,72.80
2023-05-06T11:50:47.729Z,72.80
2023-05-06T11:53:16.437Z,72.90
2023-05-06T11:55:43.726Z,72.90
2023-05-06T11:58:15.620Z,73.10
2023-05-06T12:00:51.242Z,73.30
2023-05-06T12:03:22.093Z,73.50
2023-05-06T12:05:49.438Z,73.50
2023-05-06T12:08:27.569Z,73.60
2023-05-06T12:10:55.895Z,73.70
2023-05-06T12:13:22.700Z,73.70
2023-05-06T12:15:49.423Z,73.70
2023-05-06T12:18:16.243Z,73.90
2023-05-06T12:20:43.052Z,74.00
2023-05-06T12:23:11.866Z,74.00
2023-05-06T12:25:39.674Z,74.00
2023-05-06T12:28:21.748Z,74.00
2023-05-06T12:30:48.645Z,74.00
2023-05-06T12:33:15.404Z,74.00
2023-05-06T12:35:42.095Z,73.70
2023-05-06T12:38:16.061Z,73.30
2023-05-06T12:40:52.447Z,72.90
2023-05-06T12:43:19.243Z,72.60
2023-05-06T12:45:47.291Z,72.30
2023-05-06T12:48:22.795Z,72.00
2023-05-06T12:50:54.036Z,71.50
2023-05-06T12:53:34.229Z,71.50
2023-05-06T12:56:01.032Z,71.10
2023-05-06T12:58:27.912Z,71.20
2023-05-06T13:00:54.803Z,71.20
2023-05-06T13:03:21.755Z,71.30
2023-05-06T13:05:48.579Z,71.60
2023-05-06T13:08:15.300Z,71.90
2023-05-06T13:10:41.993Z,72.20
2023-05-06T13:13:08.781Z,72.40
2023-05-06T13:15:35.578Z,72.60
2023-05-06T13:18:02.399Z,72.80
2023-05-06T13:20:29.185Z,73.10
2023-05-06T13:22:55.898Z,73.30
2023-05-06T13:25:23.113Z,73.30
2023-05-06T13:27:49.854Z,73.30
2023-05-06T13:30:16.563Z,73.50
2023-05-06T13:32:43.364Z,73.70
2023-05-06T13:35:10.661Z,74.00
2023-05-06T13:37:37.573Z,73.80
2023-05-06T13:40:04.777Z,73.70
2023-05-06T13:42:31.509Z,73.60
2023-05-06T13:44:58.222Z,73.40
2023-05-06T13:47:25.028Z,73.50
2023-05-06T13:49:52.124Z,73.60
2023-05-06T13:52:18.977Z,73.70
2023-05-06T13:54:45.666Z,73.80
2023-05-06T13:57:16.970Z,74.00
2023-05-06T13:59:43.679Z,74.20
2023-05-06T14:02:10.914Z,74.30
2023-05-06T14:04:37.914Z,74.30
2023-05-06T14:07:04.651Z,74.50
2023-05-06T14:09:31.434Z,74.60
2023-05-06T14:11:58.158Z,74.60
2023-05-06T14:14:24.907Z,74.90
2023-05-06T14:16:53.011Z,75.10
2023-05-06T14:19:19.789Z,75.20
2023-05-06T14:21:46.688Z,75.40
2023-05-06T14:24:16.418Z,75.70
2023-05-06T14:26:45.780Z,75.80
2023-05-06T14:29:12.517Z,75.80
2023-05-06T14:31:39.312Z,75.90
2023-05-06T14:34:06.123Z,76.00
2023-05-06T14:36:32.838Z,76.10
2023-05-06T14:38:59.823Z,76.10
2023-05-06T14:41:26.540Z,76.30
2023-05-06T14:43:53.184Z,76.20
2023-05-06T14:46:20.141Z,76.20
2023-05-06T14:48:47.133Z,76.60
2023-05-06T14:51:13.840Z,76.70
2023-05-06T14:53:40.572Z,77.40
2023-05-06T14:56:10.501Z,76.70
2023-05-06T14:58:37.417Z,76.90
2023-05-06T15:01:04.187Z,76.80
2023-05-06T15:03:30.933Z,77.00
2023-05-06T15:05:57.723Z,77.10
2023-05-06T15:08:24.556Z,77.20
2023-05-06T15:10:51.369Z,77.20
2023-05-06T15:13:18.158Z,77.20
2023-05-06T15:15:45.291Z,77.10
2023-05-06T15:18:11.963Z,77.00
2023-05-06T15:20:38.733Z,77.10
2023-05-06T15:23:05.467Z,77.00
2023-05-06T15:25:36.041Z,77.10
2023-05-06T15:28:04.165Z,77.20
2023-05-06T15:30:30.950Z,77.20
2023-05-06T15:32:57.724Z,77.20
2023-05-06T15:35:24.498Z,77.40
2023-05-06T15:37:54.724Z,77.40
2023-05-06T15:40:21.669Z,77.40
2023-05-06T15:42:48.386Z,77.50
2023-05-06T15:45:15.185Z,77.50
2023-05-06T15:47:42.029Z,77.60
2023-05-06T15:50:17.838Z,77.60
2023-05-06T15:52:52.071Z,77.50
2023-05-06T15:57:45.832Z,77.60
2023-05-06T16:00:13.272Z,77.70
2023-05-06T16:02:40.623Z,77.80
2023-05-06T16:05:07.790Z,77.90
2023-05-06T16:07:34.668Z,78.00
2023-05-06T16:10:01.435Z,78.10
2023-05-06T16:12:28.152Z,78.00
2023-05-06T16:14:54.917Z,78.00
2023-05-06T16:17:21.623Z,78.00
2023-05-06T16:19:48.381Z,78.20
2023-05-06T16:22:16.095Z,78.20
2023-05-06T16:24:42.873Z,78.20
2023-05-06T16:27:09.584Z,78.40
2023-05-06T16:29:36.691Z,78.40
2023-05-06T16:32:03.463Z,78.40
2023-05-06T16:34:30.190Z,78.70
2023-05-06T16:36:56.963Z,78.60
2023-05-06T16:39:23.678Z,78.80
2023-05-06T16:41:50.438Z,78.90
2023-05-06T16:44:17.195Z,79.00
2023-05-06T16:46:43.952Z,78.90
2023-05-06T16:49:10.732Z,78.80
2023-05-06T16:51:37.496Z,78.90
2023-05-06T16:54:04.347Z,79.20
2023-05-06T16:56:43.820Z,79.30
2023-05-06T16:59:15.132Z,79.40
2023-05-06T17:01:41.841Z,79.40
2023-05-06T17:04:09.050Z,79.50
2023-05-06T17:06:35.791Z,79.50
2023-05-06T17:09:02.573Z,79.40
2023-05-06T17:11:29.292Z,79.50
2023-05-06T17:13:56.076Z,79.60
2023-05-06T17:16:22.807Z,79.70
2023-05-06T17:18:49.495Z,80.00
2023-05-06T17:21:16.260Z,79.90
2023-05-06T17:23:43.258Z,79.90
2023-05-06T17:26:10.607Z,79.90
2023-05-06T17:28:37.748Z,79.90
2023-05-06T17:31:04.751Z,79.90
2023-05-06T17:33:31.594Z,80.00
2023-05-06T17:35:58.393Z,80.40
2023-05-06T17:38:25.127Z,80.30
2023-05-06T17:40:51.865Z,80.30
2023-05-06T17:43:18.686Z,80.20
2023-05-06T17:45:45.384Z,80.30
2023-05-06T17:48:12.093Z,80.40
2023-05-06T17:50:39.210Z,80.40
2023-05-06T17:53:05.915Z,80.50
2023-05-06T17:55:32.665Z,81.00
2023-05-06T17:57:59.451Z,80.60
2023-05-06T18:00:26.373Z,80.70
2023-05-06T18:02:53.339Z,80.70
2023-05-06T18:05:20.149Z,80.80
2023-05-06T18:07:46.906Z,80.70
2023-05-06T18:10:13.686Z,80.90
2023-05-06T18:12:40.434Z,80.90
2023-05-06T18:15:07.907Z,80.90
2023-05-06T18:17:34.736Z,81.00
2023-05-06T18:20:01.609Z,81.10
2023-05-06T18:22:28.486Z,81.20
2023-05-06T18:24:55.545Z,81.30
2023-05-06T18:27:22.575Z,81.40
2023-05-06T18:29:49.407Z,81.40
2023-05-06T18:32:16.119Z,81.40
2023-05-06T18:34:42.904Z,81.50
2023-05-06T18:37:09.616Z,81.50
2023-05-06T18:39:40.493Z,81.50
2023-05-06T18:42:08.253Z,81.70
2023-05-06T18:44:35.938Z,81.60
2023-05-06T18:47:02.720Z,81.70
2023-05-06T18:49:29.461Z,82.50
2023-05-06T18:51:56.194Z,81.80
2023-05-06T18:54:26.226Z,81.80
2023-05-06T18:56:53.291Z,81.90
2023-05-06T18:59:20.426Z,81.90
2023-05-06T19:01:47.253Z,82.00
2023-05-06T19:04:14.027Z,81.90
2023-05-06T19:06:41.240Z,82.00
2023-05-06T19:09:08.055Z,82.00
2023-05-06T19:11:34.772Z,82.10
2023-05-06T19:14:01.551Z,82.10
2023-05-06T19:16:28.378Z,82.20
2023-05-06T19:18:55.283Z,82.30
2023-05-06T19:21:22.047Z,82.30
2023-05-06T19:23:48.728Z,82.30
2023-05-06T19:26:15.474Z,82.30
2023-05-06T19:28:42.186Z,82.40
2023-05-06T19:31:09.668Z,82.40
2023-05-06T19:33:37.339Z,82.40
2023-05-06T19:36:04.695Z,82.60
2023-05-06T19:38:31.579Z,82.60
2023-05-06T19:41:01.688Z,82.70
2023-05-06T19:43:28.475Z,82.70
2023-05-06T19:45:55.442Z,82.80
2023-05-06T19:48:22.262Z,82.80
2023-05-06T19:50:49.121Z,82.80
2023-05-06T19:53:16.316Z,82.90
2023-05-06T19:55:43.067Z,82.90
2023-05-06T19:58:10.776Z,82.90
2023-05-06T20:00:37.592Z,83.00
2023-05-06T20:03:04.354Z,83.00
2023-05-06T20:05:31.125Z,83.00
2023-05-06T20:07:58.433Z,83.10
2023-05-06T20:10:25.635Z,83.10
2023-05-06T20:12:52.533Z,83.10
2023-05-06T20:15:19.424Z,83.20
2023-05-06T20:17:46.356Z,83.10
2023-05-06T20:20:13.345Z,83.10
2023-05-06T20:22:40.757Z,83.20
2023-05-06T20:25:09.003Z,83.20
2023-05-06T20:27:36.056Z,83.20
2023-05-06T20:30:02.937Z,83.30
2023-05-06T20:32:30.774Z,83.30
2023-05-06T20:34:57.467Z,83.30
2023-05-06T20:37:24.391Z,83.30
2023-05-06T20:39:51.153Z,83.30
2023-05-06T20:42:17.893Z,83.50
2023-05-06T20:44:44.681Z,83.50
2023-05-06T20:47:11.399Z,83.40
2023-05-06T20:49:41.572Z,83.50
2023-05-06T20:52:08.397Z,83.50
2023-05-06T20:54:35.091Z,83.50
2023-05-06T20:57:01.796Z,83.50
2023-05-06T20:59:29.151Z,83.60
2023-05-06T21:01:56.394Z,83.60
2023-05-06T21:04:23.283Z,83.60
2023-05-06T21:06:50.311Z,83.60
2023-05-06T21:09:17.960Z,83.60
2023-05-06T21:11:45.071Z,83.60
2023-05-06T21:14:12.340Z,83.60
2023-05-06T21:16:42.111Z,83.60
2023-05-06T21:19:08.782Z,83.70
2023-05-06T21:21:35.553Z,83.80
2023-05-06T21:24:02.285Z,83.80
2023-05-06T21:26:30.510Z,83.80
2023-05-06T21:28:57.199Z,83.90
2023-05-06T21:31:24.284Z,83.90
2023-05-06T21:33:54.964Z,84.10
2023-05-06T21:36:21.690Z,84.10
2023-05-06T21:38:48.759Z,84.10
2023-05-06T21:41:15.563Z,84.10
2023-05-06T21:43:42.529Z,84.10
2023-05-06T21:46:09.318Z,84.20
2023-05-06T21:48:36.053Z,84.20
2023-05-06T21:51:05.796Z,84.20
2023-05-06T21:53:32.477Z,84.20
2023-05-06T21:55:59.338Z,84.20
2023-05-06T21:58:26.039Z,84.10
2023-05-06T22:00:52.743Z,84.20
2023-05-06T22:03:20.079Z,84.20
2023-05-06T22:05:48.800Z,84.20
2023-05-06T22:08:15.510Z,84.40
2023-05-06T22:10:42.206Z,84.30
2023-05-06T22:13:09.044Z,84.30
2023-05-06T22:15:35.729Z,84.30
2023-05-06T22:18:02.493Z,84.40
2023-05-06T22:20:29.388Z,84.60
2023-05-06T22:22:56.367Z,84.60
2023-05-06T22:25:23.175Z,84.50
2023-05-06T22:27:50.042Z,84.40
2023-05-06T22:30:16.784Z,84.50
2023-05-06T22:32:43.501Z,84.40
2023-05-06T22:35:10.413Z,84.60
2023-05-06T22:37:37.199Z,84.50
2023-05-06T22:40:04.239Z,84.60
2023-05-06T22:42:30.930Z,84.60
2023-05-06T22:44:57.634Z,84.60
2023-05-06T22:47:24.626Z,84.60
2023-05-06T22:49:51.405Z,84.60
2023-05-06T22:52:18.659Z,84.60
2023-05-06T22:54:45.534Z,84.70
2023-05-06T22:57:12.252Z,84.60
2023-05-06T22:59:38.959Z,84.70
2023-05-06T23:02:05.694Z,84.70
2023-05-06T23:04:32.454Z,84.70
2023-05-06T23:06:59.147Z,84.70
2023-05-06T23:09:25.888Z,84.80
2023-05-06T23:11:52.569Z,84.70
2023-05-06T23:14:19.263Z,84.70
2023-05-06T23:16:45.957Z,84.80
2023-05-06T23:19:12.745Z,84.90
2023-05-06T23:21:39.426Z,84.80
2023-05-06T23:24:06.251Z,85.00
2023-05-06T23:26:32.929Z,85.10
2023-05-06T23:28:59.638Z,85.10
2023-05-06T23:31:26.439Z,85.10
2023-05-06T23:33:53.259Z,85.10
2023-05-06T23:36:19.954Z,85.10
2023-05-06T23:38:46.816Z,85.10
2023-05-06T23:41:13.589Z,85.10
2023-05-06T23:43:40.360Z,85.10
2023-05-06T23:46:07.092Z,85.10
2023-05-06T23:48:34.062Z,85.20
2023-05-06T23:51:00.736Z,85.20
2023-05-06T23:53:27.590Z,85.30
2023-05-06T23:55:54.277Z,85.30
2023-05-06T23:58:20.980Z,85.20
